Terminal Aerodrome Forecast
Issued by NWS

Current Version | Previous Version | Text Only | Print | Product List | Glossary Off
Versions: 1 2 3 4 5 6 7 8 9 10 11 12 13 14 15 16 17 18 19 20 21 22 23 24

897
FTUS41 KPBZ 122338
TAFHLG
TAF
KHLG 122338Z 1300/1324 25010KT 5SM -SN OVC035
     FM130100 28015G28KT 2SM -SHSN OVC015
      TEMPO 1302/1304 30015G30KT 1SM -SHSN OVC010
     FM130500 29012G25KT 4SM -SHSN OVC025=

USA.gov is the U.S. government's official web portal to all federal, state and local government web resources and services.